createdAt,value
2018-09-12T00:01:07.018Z,101696.78
2018-09-12T00:03:35.398Z,101693.64
2018-09-12T00:06:03.944Z,101701.08
2018-09-12T00:08:32.374Z,101695.66
2018-09-12T00:11:00.768Z,101696.87
2018-09-12T00:13:29.182Z,101696.59
2018-09-12T00:15:57.924Z,101696.91
2018-09-12T00:18:26.410Z,101700.32
2018-09-12T00:20:54.959Z,101702.68
2018-09-12T00:23:23.400Z,101702.99
2018-09-12T00:25:51.854Z,101709.51
2018-09-12T00:28:20.290Z,101707.57
2018-09-12T00:30:48.874Z,101701.34
2018-09-12T00:33:17.407Z,101698.67
2018-09-12T00:35:45.938Z,101705.08
2018-09-12T00:38:14.424Z,101698.70
2018-09-12T00:40:43.017Z,101698.67
2018-09-12T00:43:11.891Z,101698.70
2018-09-12T00:45:40.392Z,101698.70
2018-09-12T00:48:09.006Z,101699.66
2018-09-12T00:50:37.595Z,101699.66
2018-09-12T00:53:06.111Z,101698.42
2018-09-12T00:55:34.564Z,101690.23
2018-09-12T00:58:03.050Z,101686.91
2018-09-12T01:00:31.572Z,101700.44
2018-09-12T01:03:00.452Z,101690.23
2018-09-12T01:05:28.868Z,101694.73
2018-09-12T01:07:58.332Z,101697.80
2018-09-12T01:10:26.759Z,101697.03
2018-09-12T01:12:55.234Z,101692.59
2018-09-12T01:15:23.636Z,101692.27
2018-09-12T01:17:52.115Z,101690.74
2018-09-12T01:20:21.527Z,101699.23
2018-09-12T01:22:50.149Z,101703.81
2018-09-12T01:25:18.733Z,101698.35
2018-09-12T01:27:51.399Z,101703.37
2018-09-12T01:30:24.077Z,101698.88
2018-09-12T01:32:53.810Z,101693.98
2018-09-12T01:35:22.583Z,101693.58
2018-09-12T01:37:50.931Z,101705.23
2018-09-12T01:40:19.430Z,101709.84
2018-09-12T01:42:47.922Z,101698.55
2018-09-12T01:45:18.983Z,101709.80
2018-09-12T01:47:48.982Z,101707.53
2018-09-12T01:50:18.123Z,101713.16
2018-09-12T01:52:47.635Z,101713.28
2018-09-12T01:55:16.372Z,101708.27
2018-09-12T01:57:44.821Z,101712.15
2018-09-12T02:00:18.244Z,101714.01
2018-09-12T02:02:48.428Z,101716.23
2018-09-12T02:05:17.005Z,101719.02
2018-09-12T02:07:45.329Z,101712.17
2018-09-12T02:10:13.723Z,101722.41
2018-09-12T02:12:42.213Z,101710.80
2018-09-12T02:15:10.776Z,101710.39
2018-09-12T02:17:39.151Z,101706.94
2018-09-12T02:20:07.783Z,101707.20
2018-09-12T02:22:36.420Z,101702.30
2018-09-12T02:25:04.951Z,101705.03
2018-09-12T02:27:33.398Z,101708.51
2018-09-12T02:30:01.938Z,101705.03
2018-09-12T02:32:30.385Z,101705.55
2018-09-12T02:34:58.823Z,101705.80
2018-09-12T02:37:27.330Z,101708.98
2018-09-12T02:39:55.741Z,101702.84
2018-09-12T02:42:24.316Z,101706.60
2018-09-12T02:44:52.856Z,101704.46
2018-09-12T02:47:26.492Z,101697.73
2018-09-12T02:49:54.910Z,101703.53
2018-09-12T02:52:23.409Z,101695.45
2018-09-12T02:54:51.867Z,101692.22
2018-09-12T02:57:20.298Z,101688.12
2018-09-12T02:59:48.726Z,101688.10
2018-09-12T03:02:17.334Z,101685.55
2018-09-12T03:04:45.803Z,101683.63
2018-09-12T03:07:14.167Z,101684.26
2018-09-12T03:09:42.492Z,101685.78
2018-09-12T03:12:10.743Z,101687.98
2018-09-12T03:14:39.157Z,101688.92
2018-09-12T03:17:07.488Z,101691.36
2018-09-12T03:19:35.990Z,101691.21
2018-09-12T03:22:04.558Z,101689.92
2018-09-12T03:24:32.995Z,101685.22
2018-09-12T03:27:01.452Z,101685.23
2018-09-12T03:29:29.882Z,101680.94
2018-09-12T03:31:58.244Z,101673.98
2018-09-12T03:34:26.620Z,101669.41
2018-09-12T03:36:55.116Z,101672.79
2018-09-12T03:39:23.620Z,101667.95
2018-09-12T03:41:52.138Z,101660.37
2018-09-12T03:44:20.548Z,101662.23
2018-09-12T03:46:48.842Z,101666.12
2018-09-12T03:49:17.264Z,101663.56
2018-09-12T03:51:45.748Z,101666.85
2018-09-12T03:54:14.122Z,101672.00
2018-09-12T03:56:42.643Z,101677.70
2018-09-12T03:59:11.075Z,101677.52
2018-09-12T04:01:39.494Z,101680.19
2018-09-12T04:04:07.911Z,101679.27
2018-09-12T04:06:36.425Z,101674.33
2018-09-12T04:09:06.940Z,101679.66
2018-09-12T04:11:35.448Z,101666.45
2018-09-12T04:14:04.178Z,101661.65
2018-09-12T04:16:32.685Z,101666.93
2018-09-12T04:19:01.092Z,101667.95
2018-09-12T04:21:29.598Z,101649.33
2018-09-12T04:23:58.041Z,101650.89
2018-09-12T04:26:26.581Z,101665.08
2018-09-12T04:28:55.040Z,101661.16
2018-09-12T04:31:23.394Z,101654.25
2018-09-12T04:33:51.808Z,101659.23
2018-09-12T04:36:20.177Z,101654.08
2018-09-12T04:38:48.611Z,101662.05
2018-09-12T04:41:16.982Z,101662.58
2018-09-12T04:43:45.368Z,101646.39
2018-09-12T04:46:13.774Z,101666.54
2018-09-12T04:48:42.919Z,101656.09
2018-09-12T04:51:11.330Z,101673.98
2018-09-12T04:53:40.042Z,101673.78
2018-09-12T04:56:08.434Z,101676.78
2018-09-12T04:58:37.058Z,101690.84
2018-09-12T05:01:05.490Z,101700.26
2018-09-12T05:03:33.958Z,101706.56
2018-09-12T05:06:02.430Z,101705.52
2018-09-12T05:08:30.794Z,101703.31
2018-09-12T05:10:59.182Z,101693.03
2018-09-12T05:13:27.534Z,101691.00
2018-09-12T05:15:56.056Z,101699.20
2018-09-12T05:18:24.480Z,101685.55
2018-09-12T05:20:52.924Z,101691.29
2018-09-12T05:23:21.366Z,101691.28
2018-09-12T05:25:49.954Z,101676.94
2018-09-12T05:28:18.485Z,101683.23
2018-09-12T05:30:46.913Z,101685.77
2018-09-12T05:33:15.340Z,101670.98
2018-09-12T05:35:43.717Z,101661.08
2018-09-12T05:38:12.169Z,101663.45
2018-09-12T05:40:40.763Z,101666.17
2018-09-12T05:43:10.310Z,101679.47
2018-09-12T05:48:57.546Z,101692.42
2018-09-12T05:51:46.615Z,101696.70
2018-09-12T05:54:20.745Z,101704.53
2018-09-12T05:57:00.124Z,101694.59
2018-09-12T05:59:35.478Z,101702.94
2018-09-12T06:02:05.064Z,101703.31
2018-09-12T06:04:34.361Z,101694.30
2018-09-12T06:07:03.394Z,101694.87
2018-09-12T06:09:31.910Z,101696.66
2018-09-12T06:12:00.264Z,101693.70
2018-09-12T06:14:29.109Z,101706.27
2018-09-12T06:16:57.893Z,101717.34
2018-09-12T06:19:26.438Z,101718.37
2018-09-12T06:21:54.862Z,101717.09
2018-09-12T06:24:23.532Z,101720.72
2018-09-12T06:26:52.010Z,101727.89
2018-09-12T06:29:20.434Z,101710.66
2018-09-12T06:31:49.118Z,101720.14
2018-09-12T06:34:17.594Z,101719.03
2018-09-12T06:36:46.872Z,101713.55
2018-09-12T06:39:15.607Z,101724.06
2018-09-12T06:41:43.935Z,101731.81
2018-09-12T06:44:12.399Z,101728.66
2018-09-12T06:46:41.172Z,101708.61
2018-09-12T06:49:09.813Z,101708.19
2018-09-12T06:51:38.365Z,101706.86
2018-09-12T06:54:06.842Z,101715.13
2018-09-12T06:56:35.559Z,101723.53
2018-09-12T06:59:04.054Z,101716.97
2018-09-12T07:01:32.572Z,101709.65
2018-09-12T07:04:01.134Z,101715.78
2018-09-12T07:06:29.562Z,101707.22
2018-09-12T07:08:58.013Z,101708.84
2018-09-12T07:11:26.470Z,101698.72
2018-09-12T07:13:54.840Z,101699.98
2018-09-12T07:16:23.566Z,101708.03
2018-09-12T07:18:52.131Z,101710.33
2018-09-12T07:21:20.548Z,101705.08
2018-09-12T07:23:49.051Z,101711.50
2018-09-12T07:26:17.489Z,101711.79
2018-09-12T07:28:45.967Z,101714.67
2018-09-12T07:31:14.626Z,101722.07
2018-09-12T07:33:43.158Z,101726.13
2018-09-12T07:36:11.628Z,101740.76
2018-09-12T07:38:40.331Z,101757.92
2018-09-12T07:41:08.798Z,101759.60
2018-09-12T07:43:37.697Z,101764.56
2018-09-12T07:46:06.795Z,101756.52
2018-09-12T07:48:35.227Z,101766.34
2018-09-12T07:51:03.654Z,101772.17
2018-09-12T07:53:32.210Z,101770.41
2018-09-12T07:56:00.733Z,101774.88
2018-09-12T07:58:29.166Z,101775.77
2018-09-12T08:00:57.675Z,101767.80
2018-09-12T08:03:26.181Z,101759.37
2018-09-12T08:05:54.625Z,101762.84
2018-09-12T08:08:23.092Z,101761.52
2018-09-12T08:10:51.870Z,101768.86
2018-09-12T08:13:20.342Z,101768.41
2018-09-12T08:15:48.765Z,101779.12
2018-09-12T08:18:17.177Z,101776.21
2018-09-12T08:20:45.657Z,101787.18
2018-09-12T08:23:14.267Z,101791.76
2018-09-12T08:25:42.758Z,101793.75
2018-09-12T08:28:11.365Z,101788.27
2018-09-12T08:30:39.950Z,101778.59
2018-09-12T08:33:08.406Z,101781.12
2018-09-12T08:35:37.074Z,101791.17
2018-09-12T08:38:05.854Z,101793.39
2018-09-12T08:40:34.377Z,101792.05
2018-09-12T08:43:02.916Z,101804.98
2018-09-12T08:45:31.428Z,101813.17
2018-09-12T08:48:00.034Z,101813.41
2018-09-12T08:50:28.428Z,101804.31
2018-09-12T08:52:56.909Z,101795.17
2018-09-12T08:55:25.821Z,101806.02
2018-09-12T08:57:54.425Z,101808.16
2018-09-12T09:00:27.147Z,101816.59
2018-09-12T09:02:55.547Z,101834.84
2018-09-12T09:05:23.939Z,101836.63
2018-09-12T09:07:52.430Z,101829.66
2018-09-12T09:10:20.819Z,101831.74
2018-09-12T09:12:49.273Z,101832.98
2018-09-12T09:15:17.717Z,101818.53
2018-09-12T09:17:46.278Z,101828.70
2018-09-12T09:20:14.732Z,101838.93
2018-09-12T09:22:43.465Z,101842.69
2018-09-12T09:25:12.212Z,101845.78
2018-09-12T09:27:41.056Z,101848.66
2018-09-12T09:30:10.001Z,101856.66
2018-09-12T09:32:38.786Z,101854.28
2018-09-12T09:35:07.488Z,101854.22
2018-09-12T09:37:36.765Z,101857.23
2018-09-12T09:40:05.977Z,101855.42
2018-09-12T09:42:34.831Z,101858.97
2018-09-12T09:45:03.723Z,101862.15
2018-09-12T09:47:32.483Z,101858.29
2018-09-12T09:50:01.055Z,101849.84
2018-09-12T09:52:29.514Z,101856.08
2018-09-12T09:54:58.184Z,101845.20
2018-09-12T09:57:26.612Z,101848.51
2018-09-12T09:59:55.507Z,101846.85
2018-09-12T10:02:29.046Z,101851.59
2018-09-12T10:05:07.585Z,101857.79
2018-09-12T10:07:56.256Z,101858.48
2018-09-12T10:10:24.783Z,101855.88
2018-09-12T10:12:53.427Z,101862.55
2018-09-12T10:15:21.910Z,101870.41
2018-09-12T10:17:50.326Z,101875.38
2018-09-12T10:20:18.855Z,101870.11
2018-09-12T10:22:47.342Z,101873.39
2018-09-12T10:25:15.964Z,101873.91
2018-09-12T10:27:44.582Z,101867.77
2018-09-12T10:30:13.087Z,101873.91
2018-09-12T10:32:41.673Z,101879.44
2018-09-12T10:35:10.051Z,101894.77
2018-09-12T10:37:38.619Z,101894.41
2018-09-12T10:40:07.500Z,101898.83
2018-09-12T10:42:36.110Z,101895.80
2018-09-12T10:45:04.942Z,101900.77
2018-09-12T10:47:33.353Z,101901.28
2018-09-12T10:50:02.017Z,101893.99
2018-09-12T10:52:30.548Z,101903.77
2018-09-12T10:54:59.069Z,101892.02
2018-09-12T10:57:27.893Z,101905.67
2018-09-12T10:59:56.549Z,101912.33
2018-09-12T11:02:25.147Z,101913.88
2018-09-12T11:04:53.548Z,101906.64
2018-09-12T11:07:22.049Z,101904.42
2018-09-12T11:09:50.648Z,101906.64
2018-09-12T11:12:19.228Z,101915.65
2018-09-12T11:14:47.800Z,101916.05
2018-09-12T11:17:16.226Z,101916.41
2018-09-12T11:19:44.648Z,101930.62
2018-09-12T11:22:13.079Z,101947.41
2018-09-12T11:24:41.767Z,101929.80
2018-09-12T11:27:10.253Z,101934.09
2018-09-12T11:29:38.892Z,101924.61
2018-09-12T11:32:07.394Z,101913.20
2018-09-12T11:34:35.865Z,101913.34
2018-09-12T11:37:04.411Z,101921.05
2018-09-12T11:39:32.980Z,101915.33
2018-09-12T11:42:01.468Z,101911.17
2018-09-12T11:44:29.899Z,101916.22
2018-09-12T11:46:58.376Z,101910.50
2018-09-12T11:49:26.869Z,101915.44
2018-09-12T11:51:55.294Z,101912.55
2018-09-12T11:54:23.823Z,101909.95
2018-09-12T11:56:52.300Z,101914.33
2018-09-12T11:59:20.787Z,101922.75
2018-09-12T12:01:49.340Z,101930.97
2018-09-12T12:04:17.937Z,101930.91
2018-09-12T12:06:46.653Z,101936.75
2018-09-12T12:09:15.104Z,101934.77
2018-09-12T12:11:43.741Z,101938.02
2018-09-12T12:14:12.257Z,101941.86
2018-09-12T12:16:40.875Z,101946.67
2018-09-12T12:19:09.491Z,101950.02
2018-09-12T12:21:38.040Z,101947.28
2018-09-12T12:24:06.631Z,101953.94
2018-09-12T12:26:35.024Z,101953.42
2018-09-12T12:29:03.567Z,101959.63
2018-09-12T12:31:32.081Z,101962.43
2018-09-12T12:34:00.721Z,101965.61
2018-09-12T12:36:29.251Z,101966.59
2018-09-12T12:38:57.866Z,101970.22
2018-09-12T12:41:26.560Z,101974.16
2018-09-12T12:43:55.315Z,101976.45
2018-09-12T12:46:24.249Z,101974.81
2018-09-12T12:48:52.905Z,101977.41
2018-09-12T12:51:21.538Z,101973.80
2018-09-12T12:53:50.169Z,101981.70
2018-09-12T12:56:18.825Z,101969.98
2018-09-12T12:58:47.358Z,101966.44
2018-09-12T13:01:15.865Z,101963.05
2018-09-12T13:03:45.037Z,101968.28
2018-09-12T13:06:13.574Z,101970.42
2018-09-12T13:08:42.029Z,101974.03
2018-09-12T13:11:10.598Z,101979.14
2018-09-12T13:13:39.081Z,101982.91
2018-09-12T13:16:07.783Z,101978.55
2018-09-12T13:18:36.562Z,101990.70
2018-09-12T13:21:05.604Z,101994.11
2018-09-12T13:23:34.574Z,102000.58
2018-09-12T13:26:03.840Z,102005.16
2018-09-12T13:28:32.833Z,102004.34
2018-09-12T13:31:01.806Z,102007.80
2018-09-12T13:33:31.183Z,102010.98
2018-09-12T13:36:00.536Z,102010.25
2018-09-12T13:38:29.512Z,102012.41
2018-09-12T13:40:58.335Z,102008.19
2018-09-12T13:43:29.718Z,102014.03
2018-09-12T13:45:58.489Z,102019.17
2018-09-12T13:48:27.775Z,102016.32
2018-09-12T13:50:56.569Z,102020.64
2018-09-12T13:53:25.168Z,102023.27
2018-09-12T13:55:54.065Z,102031.19
2018-09-12T13:58:22.801Z,102028.03
2018-09-12T14:00:51.758Z,102033.23
2018-09-12T14:03:20.292Z,102040.67
2018-09-12T14:05:48.722Z,102045.03
2018-09-12T14:08:17.323Z,102034.72
2018-09-12T14:10:46.015Z,102038.30
2018-09-12T14:13:14.602Z,102038.33
2018-09-12T14:15:43.341Z,102037.45
2018-09-12T14:18:11.937Z,102030.80
2018-09-12T14:20:40.805Z,102037.45
2018-09-12T14:23:09.203Z,102045.92
2018-09-12T14:25:37.890Z,102049.47
2018-09-12T14:28:06.766Z,102057.02
2018-09-12T14:30:35.220Z,102044.45
2018-09-12T14:33:03.643Z,102045.18
2018-09-12T14:35:32.327Z,102050.42
2018-09-12T14:38:00.978Z,102040.45
2018-09-12T14:40:31.757Z,102043.71
2018-09-12T14:43:00.430Z,102040.98
2018-09-12T14:45:29.063Z,102046.97
2018-09-12T14:47:57.610Z,102050.08
2018-09-12T14:50:26.240Z,102038.14
2018-09-12T14:52:54.916Z,102041.98
2018-09-12T14:55:23.702Z,102051.97
2018-09-12T14:57:52.462Z,102059.19
2018-09-12T15:00:28.702Z,102062.77
2018-09-12T15:02:59.267Z,102067.87
2018-09-12T15:05:27.925Z,102063.70
2018-09-12T15:07:57.724Z,102059.19
2018-09-12T15:10:27.224Z,102058.37
2018-09-12T15:12:56.430Z,102061.06
2018-09-12T15:15:25.069Z,102061.88
2018-09-12T15:17:53.783Z,102063.28
2018-09-12T15:20:23.269Z,102053.08
2018-09-12T15:22:53.012Z,102057.00
2018-09-12T15:25:22.013Z,102052.70
2018-09-12T15:27:51.653Z,102056.26
2018-09-12T15:30:21.175Z,102046.20
2018-09-12T15:32:50.288Z,102060.84
2018-09-12T15:35:19.199Z,102066.02
2018-09-12T15:37:48.262Z,102064.98
2018-09-12T15:40:17.975Z,102061.88
2018-09-12T15:42:47.195Z,102072.34
2018-09-12T15:45:16.623Z,102067.31
2018-09-12T15:47:45.801Z,102070.91
2018-09-12T15:50:14.546Z,102063.44
2018-09-12T15:52:43.050Z,102060.63
2018-09-12T15:55:11.589Z,102053.59
2018-09-12T15:57:40.227Z,102053.75
2018-09-12T16:00:09.054Z,102061.36
2018-09-12T16:02:37.573Z,102054.55
2018-09-12T16:05:06.708Z,102057.66
2018-09-12T16:07:36.713Z,102050.50
2018-09-12T16:10:06.402Z,102060.84
2018-09-12T16:12:35.086Z,102058.11
2018-09-12T16:15:03.955Z,102071.94
2018-09-12T16:17:32.683Z,102074.96
2018-09-12T16:20:01.580Z,102083.58
2018-09-12T16:22:31.224Z,102080.91
2018-09-12T16:25:00.215Z,102079.50
2018-09-12T16:27:29.253Z,102068.72
2018-09-12T16:29:58.338Z,102068.41
2018-09-12T16:32:28.121Z,102066.16
2018-09-12T16:34:57.830Z,102070.05
2018-09-12T16:37:26.534Z,102067.74
2018-09-12T16:39:56.658Z,102067.37
2018-09-12T16:42:25.180Z,102061.01
2018-09-12T16:44:54.127Z,102061.89
2018-09-12T16:47:23.332Z,102056.22
2018-09-12T16:49:52.413Z,102053.71
2018-09-12T16:52:21.471Z,102053.41
2018-09-12T16:54:51.608Z,102054.37
2018-09-12T16:57:20.679Z,102052.36
2018-09-12T16:59:49.750Z,102054.72
2018-09-12T17:02:19.642Z,102063.52
2018-09-12T17:04:49.297Z,102060.64
2018-09-12T17:07:18.951Z,102058.42
2018-09-12T17:09:48.473Z,102062.41
2018-09-12T17:12:18.044Z,102059.31
2018-09-12T17:14:47.381Z,102059.91
2018-09-12T17:17:16.729Z,102062.43
2018-09-12T17:19:52.194Z,102061.18
2018-09-12T17:22:25.347Z,102073.78
2018-09-12T17:24:57.641Z,102069.46
2018-09-12T17:27:27.489Z,102070.71
2018-09-12T17:29:57.019Z,102080.16
2018-09-12T17:32:25.766Z,102081.80
2018-09-12T17:34:54.573Z,102088.14
2018-09-12T17:37:23.269Z,102079.56
2018-09-12T17:39:52.173Z,102084.59
2018-09-12T17:42:21.177Z,102083.42
2018-09-12T17:44:53.249Z,102085.86
2018-09-12T17:47:24.860Z,102084.45
2018-09-12T17:49:53.859Z,102084.67
2018-09-12T17:52:22.822Z,102086.95
2018-09-12T17:54:52.486Z,102096.48
2018-09-12T17:57:21.484Z,102103.78
2018-09-12T17:59:50.438Z,102104.19
2018-09-12T18:02:19.220Z,102108.47
2018-09-12T18:04:48.302Z,102105.64
2018-09-12T18:07:17.776Z,102110.37
2018-09-12T18:09:46.949Z,102112.59
2018-09-12T18:12:16.706Z,102113.56
2018-09-12T18:14:46.206Z,102108.84
2018-09-12T18:17:15.747Z,102092.27
2018-09-12T18:19:45.232Z,102102.31
2018-09-12T18:22:14.908Z,102101.82
2018-09-12T18:24:44.743Z,102096.18
2018-09-12T18:27:14.753Z,102101.42
2018-09-12T18:29:44.536Z,102105.20
2018-09-12T18:32:14.675Z,102118.72
2018-09-12T18:34:44.503Z,102119.11
2018-09-12T18:37:13.897Z,102116.89
2018-09-12T18:39:43.456Z,102124.95
2018-09-12T18:42:12.751Z,102125.89
2018-09-12T18:44:42.675Z,102124.19
2018-09-12T18:47:12.101Z,102118.56
2018-09-12T18:49:41.415Z,102133.28
2018-09-12T18:52:13.285Z,102139.45
2018-09-12T18:54:44.777Z,102138.42
2018-09-12T18:57:15.466Z,102133.12
2018-09-12T18:59:44.981Z,102129.95
2018-09-12T19:02:14.600Z,102135.99
2018-09-12T19:04:44.567Z,102144.58
2018-09-12T19:07:14.115Z,102157.57
2018-09-12T19:09:42.932Z,102165.16
2018-09-12T19:12:12.427Z,102146.33
2018-09-12T19:14:43.618Z,102150.32
2018-09-12T19:17:15.831Z,102153.70
2018-09-12T19:19:47.411Z,102147.56
2018-09-12T19:22:20.239Z,102147.23
2018-09-12T19:24:50.639Z,102143.66
2018-09-12T19:27:20.333Z,102135.08
2018-09-12T19:29:50.231Z,102132.00
2018-09-12T19:32:19.684Z,102139.25
2018-09-12T19:34:49.197Z,102137.88
2018-09-12T19:37:18.994Z,102129.59
2018-09-12T19:39:50.068Z,102123.47
2018-09-12T19:42:25.143Z,102133.59
2018-09-12T19:44:56.083Z,102149.03
2018-09-12T19:47:32.303Z,102142.17
2018-09-12T19:50:07.320Z,102137.88
2018-09-12T19:52:40.258Z,102151.34
2018-09-12T19:55:09.477Z,102147.48
2018-09-12T19:57:38.482Z,102147.31
2018-09-12T20:00:14.184Z,102137.27
2018-09-12T20:02:43.077Z,102133.62
2018-09-12T20:05:12.273Z,102137.70
2018-09-12T20:07:41.033Z,102133.75
2018-09-12T20:10:09.834Z,102133.88
2018-09-12T20:12:39.537Z,102139.62
2018-09-12T20:15:09.761Z,102140.52
2018-09-12T20:17:39.543Z,102144.94
2018-09-12T20:20:08.986Z,102142.45
2018-09-12T20:22:38.209Z,102142.97
2018-09-12T20:25:07.668Z,102138.89
2018-09-12T20:27:36.500Z,102136.23
2018-09-12T20:30:05.932Z,102143.48
2018-09-12T20:32:35.386Z,102141.13
2018-09-12T20:35:05.195Z,102149.01
2018-09-12T20:37:35.093Z,102144.30
2018-09-12T20:40:04.716Z,102141.55
2018-09-12T20:42:34.544Z,102138.28
2018-09-12T20:45:03.945Z,102140.31
2018-09-12T20:47:33.534Z,102139.19
2018-09-12T20:52:52.468Z,102132.03
2018-09-12T20:55:22.235Z,102134.30
2018-09-12T20:57:52.231Z,102133.48
2018-09-12T21:00:21.177Z,102134.52
2018-09-12T21:02:49.957Z,102135.93
2018-09-12T21:05:19.367Z,102144.93
2018-09-12T21:07:49.636Z,102148.41
2018-09-12T21:10:19.943Z,102136.95
2018-09-12T21:12:49.094Z,102139.61
2018-09-12T21:15:17.707Z,102153.32
2018-09-12T21:17:46.557Z,102146.08
2018-09-12T21:20:15.236Z,102147.91
2018-09-12T21:22:44.985Z,102151.48
2018-09-12T21:25:13.531Z,102157.91
2018-09-12T21:27:42.054Z,102152.38
2018-09-12T21:30:10.638Z,102154.44
2018-09-12T21:32:39.193Z,102161.89
2018-09-12T21:35:07.730Z,102170.98
2018-09-12T21:37:36.431Z,102161.50
2018-09-12T21:40:05.271Z,102159.27
2018-09-12T21:42:33.960Z,102159.05
2018-09-12T21:45:02.670Z,102163.85
2018-09-12T21:47:31.398Z,102166.23
2018-09-12T21:50:00.221Z,102163.97
2018-09-12T21:52:29.939Z,102166.72
2018-09-12T21:54:58.548Z,102172.56
2018-09-12T21:57:27.262Z,102170.12
2018-09-12T22:00:01.490Z,102179.80
2018-09-12T22:02:30.110Z,102176.14
2018-09-12T22:04:58.652Z,102174.30
2018-09-12T22:07:27.446Z,102174.31
2018-09-12T22:09:55.967Z,102175.75
2018-09-12T22:12:24.558Z,102174.52
2018-09-12T22:14:53.136Z,102169.81
2018-09-12T22:17:21.761Z,102173.80
2018-09-12T22:19:50.443Z,102167.37
2018-09-12T22:22:19.042Z,102168.70
2018-09-12T22:24:48.366Z,102152.97
2018-09-12T22:27:18.618Z,102156.84
2018-09-12T22:29:47.329Z,102158.87
2018-09-12T22:32:16.982Z,102157.43
2018-09-12T22:34:46.348Z,102153.88
2018-09-12T22:37:15.731Z,102150.48
2018-09-12T22:39:44.283Z,102141.92
2018-09-12T22:42:13.446Z,102146.59
2018-09-12T22:44:41.930Z,102155.80
2018-09-12T22:47:11.191Z,102151.00
2018-09-12T22:49:39.604Z,102154.87
2018-09-12T22:52:08.307Z,102153.44
2018-09-12T22:54:38.072Z,102157.12
2018-09-12T22:57:06.468Z,102158.34
2018-09-12T22:59:34.915Z,102155.81
2018-09-12T23:02:03.407Z,102153.54
2018-09-12T23:04:31.863Z,102158.85
2018-09-12T23:07:00.332Z,102154.56
2018-09-12T23:09:28.754Z,102155.80
2018-09-12T23:11:57.276Z,102162.23
2018-09-12T23:14:25.711Z,102167.97
2018-09-12T23:16:54.311Z,102162.75
2018-09-12T23:19:22.778Z,102162.45
2018-09-12T23:21:51.432Z,102166.64
2018-09-12T23:24:19.821Z,102166.53
2018-09-12T23:26:49.296Z,102166.72
2018-09-12T23:29:17.766Z,102166.53
2018-09-12T23:31:46.298Z,102164.69
2018-09-12T23:34:14.796Z,102165.72
2018-09-12T23:36:43.294Z,102171.94
2018-09-12T23:39:13.771Z,102166.53
2018-09-12T23:41:42.902Z,102175.53
2018-09-12T23:44:11.659Z,102173.80
2018-09-12T23:46:40.112Z,102175.61
2018-09-12T23:49:09.150Z,102183.09
2018-09-12T23:51:37.870Z,102177.45
2018-09-12T23:54:06.639Z,102174.61
2018-09-12T23:56:35.165Z,102170.42
2018-09-12T23:59:03.725Z,102173.08
